Time;durP1;ratioP1;P1;durP2;ratioP2;P2;SDS_P1;SDS_P2;PMS_P1;PMS_P2;Temp;Humidity;BMP_temperature;BMP_pressure;BME280_temperature;BME280_humidity;BME280_pressure;Samples;Min_cycle;Max_cycle;Signal;HPM_P1;HPM_P2
2022/09/02 00:01:36;;;;;;;5.50;1.48;;;;;;;22.62;33.88;101905.56;5092545;28;20032;-78
2022/09/02 00:04:05;;;;;;;2.75;1.40;;;;;;;22.63;33.53;101904.47;5092221;28;20504;-76
2022/09/02 00:06:31;;;;;;;1.23;1.05;;;;;;;22.59;33.65;101903.41;5092472;28;20032;-78
2022/09/02 00:08:57;;;;;;;10.98;1.73;;;;;;;22.66;33.85;101901.16;5074085;28;20133;-78
2022/09/02 00:11:26;;;;;;;3.83;1.30;;;;;;;22.62;33.64;101896.53;5092230;28;20038;-77
2022/09/02 00:13:53;;;;;;;2.95;1.42;;;;;;;22.56;34.06;101889.41;5092146;28;20032;-75
2022/09/02 00:16:19;;;;;;;2.30;1.40;;;;;;;22.54;34.20;101891.59;5073444;28;20119;-77
2022/09/02 00:18:45;;;;;;;5.05;1.70;;;;;;;22.48;34.11;101888.06;5091299;28;20040;-78
2022/09/02 00:21:15;;;;;;;3.60;1.50;;;;;;;22.49;34.09;101886.97;5092956;28;20466;-78
2022/09/02 00:23:42;;;;;;;5.55;1.48;;;;;;;22.49;33.91;101886.97;5073584;28;20051;-76
2022/09/02 00:26:07;;;;;;;2.42;1.23;;;;;;;22.46;33.94;101892.19;5092497;28;20093;-78
2022/09/02 00:28:33;;;;;;;10.27;1.35;;;;;;;22.43;34.33;101884.50;5092563;28;20028;-78
2022/09/02 00:30:58;;;;;;;1.92;1.38;;;;;;;22.41;34.26;101883.97;5097263;28;20036;-77
2022/09/02 00:33:24;;;;;;;3.38;1.58;;;;;;;22.37;34.61;101880.13;5093570;28;20028;-78
2022/09/02 00:35:49;;;;;;;2.47;1.40;;;;;;;22.36;34.49;101884.00;5093790;28;20038;-80
2022/09/02 00:38:15;;;;;;;7.70;1.55;;;;;;;22.37;34.30;101885.63;5092390;28;20032;-78
2022/09/02 00:40:48;;;;;;;7.43;1.40;;;;;;;22.33;34.46;101882.63;5085642;28;20032;-78
2022/09/02 00:43:45;;;;;;;7.80;1.30;;;;;;;22.26;34.60;101889.47;5085722;28;20039;-79
2022/09/02 00:46:13;;;;;;;3.10;1.60;;;;;;;22.22;34.60;101878.28;5026841;28;20057;-78
2022/09/02 00:48:47;;;;;;;2.78;1.40;;;;;;;22.21;34.94;101875.81;5029542;28;20041;-77
2022/09/02 00:51:13;;;;;;;1.95;1.30;;;;;;;22.23;34.93;101873.63;5029313;28;20061;-76
2022/09/02 00:53:41;;;;;;;2.28;1.33;;;;;;;22.19;34.53;101878.81;5024212;28;20125;-77
2022/09/02 00:56:17;;;;;;;2.97;1.52;;;;;;;22.09;34.90;101878.84;5029237;28;20040;-78
2022/09/02 00:58:43;;;;;;;7.70;2.00;;;;;;;22.04;34.89;101876.09;5029907;28;20045;-75
2022/09/02 01:01:10;;;;;;;2.85;1.10;;;;;;;22.03;34.93;101877.22;5014151;28;20516;-78
2022/09/02 01:03:36;;;;;;;4.72;1.20;;;;;;;22.03;35.01;101877.22;5030182;28;20041;-78
2022/09/02 01:06:02;;;;;;;3.67;1.02;;;;;;;22.03;34.59;101870.91;5031421;28;20090;-78
2022/09/02 01:08:33;;;;;;;5.40;1.40;;;;;;;22.02;34.69;101875.56;5030718;28;20127;-77
2022/09/02 01:11:00;;;;;;;1.52;0.80;;;;;;;22.04;35.27;101864.31;5029893;28;20048;-78
2022/09/02 01:13:28;;;;;;;2.13;1.25;;;;;;;21.99;35.27;101864.34;5030100;28;20063;-77
2022/09/02 01:16:14;;;;;;;4.18;1.25;;;;;;;21.81;35.49;101861.09;5029777;28;20049;-77
2022/09/02 01:18:44;;;;;;;3.65;1.17;;;;;;;21.82;35.74;101862.72;5029163;28;20056;-77
2022/09/02 01:21:09;;;;;;;7.45;1.48;;;;;;;21.81;35.66;101858.38;4996987;28;20041;-79
2022/09/02 01:23:36;;;;;;;5.65;1.20;;;;;;;21.73;35.63;101856.13;5087116;28;20043;-77
2022/09/02 01:26:04;;;;;;;3.63;1.13;;;;;;;21.82;35.68;101849.03;5091570;28;20036;-78
2022/09/02 01:28:32;;;;;;;6.72;1.42;;;;;;;21.78;35.63;101852.56;5072854;28;20400;-78
2022/09/02 01:30:58;;;;;;;2.42;1.05;;;;;;;21.69;35.53;101848.75;5093250;28;20032;-78
2022/09/02 01:33:24;;;;;;;2.78;1.00;;;;;;;21.62;35.80;101853.69;5095260;28;20464;-77
2022/09/02 01:35:50;;;;;;;3.08;0.98;;;;;;;21.65;36.16;101856.69;5096011;28;20020;-77
2022/09/02 01:38:16;;;;;;;1.58;1.17;;;;;;;21.66;36.03;101843.84;5095586;28;20059;-77
2022/09/02 01:40:42;;;;;;;3.00;1.17;;;;;;;21.54;35.88;101848.75;5095763;28;20077;-78
2022/09/02 01:43:17;;;;;;;2.53;0.80;;;;;;;21.59;35.90;101849.56;5095452;28;20028;-77
2022/09/02 01:45:45;;;;;;;1.65;1.00;;;;;;;21.66;35.87;101844.63;5096001;28;20044;-78
2022/09/02 01:48:11;;;;;;;4.88;1.00;;;;;;;21.56;36.24;101841.09;5095783;28;20028;-77
2022/09/02 01:50:40;;;;;;;1.90;1.08;;;;;;;21.63;36.12;101842.47;5095319;28;20102;-76
2022/09/02 01:53:06;;;;;;;4.60;1.20;;;;;;;21.61;36.55;101838.34;5089381;28;20134;-76
2022/09/02 01:55:33;;;;;;;14.90;1.33;;;;;;;21.51;36.51;101830.13;5095092;28;20432;-77
2022/09/02 01:57:59;;;;;;;1.70;0.90;;;;;;;21.63;35.99;101838.91;5094630;28;20044;-77
2022/09/02 02:00:25;;;;;;;1.10;0.82;;;;;;;21.57;36.37;101835.34;5095004;28;20128;-77
2022/09/02 02:02:51;;;;;;;6.85;0.90;;;;;;;21.60;36.57;101834.78;5092644;28;20028;-77
2022/09/02 02:05:17;;;;;;;3.38;1.02;;;;;;;21.47;36.58;101829.88;5076473;28;20027;-77
2022/09/02 02:07:43;;;;;;;3.80;0.93;;;;;;;21.37;36.95;101826.31;5095011;28;20040;-78
2022/09/02 02:10:12;;;;;;;5.88;1.02;;;;;;;21.49;36.55;101826.84;5095354;28;20024;-76
2022/09/02 02:12:38;;;;;;;3.65;1.05;;;;;;;21.54;36.24;101827.69;5095396;28;20043;-77
2022/09/02 02:15:07;;;;;;;3.47;1.10;;;;;;;21.41;36.72;101827.41;5094830;28;20261;-77
2022/09/02 02:17:32;;;;;;;4.18;0.75;;;;;;;21.42;36.87;101827.16;5094153;28;20089;-77
2022/09/02 02:19:58;;;;;;;1.67;0.80;;;;;;;21.49;36.53;101829.59;5094055;28;20040;-78
2022/09/02 02:22:23;;;;;;;4.28;0.90;;;;;;;21.37;36.63;101829.03;5098149;28;20046;-77
2022/09/02 02:24:49;;;;;;;2.85;0.80;;;;;;;21.29;37.14;101829.56;5095072;28;20494;-77
2022/09/02 02:27:14;;;;;;;3.15;1.17;;;;;;;21.36;36.89;101827.41;5095270;28;20054;-77
2022/09/02 02:29:40;;;;;;;8.35;1.17;;;;;;;21.45;36.98;101825.75;5092508;28;20491;-79
2022/09/02 02:32:06;;;;;;;2.83;1.13;;;;;;;21.47;36.28;101827.13;5093860;28;20055;-77
2022/09/02 02:34:32;;;;;;;2.42;0.80;;;;;;;21.45;37.24;101826.59;5093796;28;20040;-77
2022/09/02 02:36:58;;;;;;;5.85;0.95;;;;;;;21.43;36.73;101822.47;5069897;28;20032;-79
2022/09/02 02:39:23;;;;;;;4.10;0.93;;;;;;;21.53;36.63;101823.31;5093765;28;20514;-77
2022/09/02 02:41:49;;;;;;;2.33;0.80;;;;;;;21.55;36.63;101828.50;5093148;28;20032;-77
2022/09/02 02:44:14;;;;;;;0.88;0.80;;;;;;;21.47;36.70;101821.66;5093815;28;20387;-77
2022/09/02 02:46:40;;;;;;;3.63;0.98;;;;;;;21.37;37.18;101820.84;5094099;28;20040;-77
2022/09/02 02:49:06;;;;;;;1.48;0.80;;;;;;;21.62;36.19;101829.06;5093300;28;20040;-78
2022/09/02 02:51:32;;;;;;;2.00;0.88;;;;;;;21.71;36.66;101825.50;5094319;28;20051;-78
2022/09/02 02:53:58;;;;;;;1.63;0.90;;;;;;;21.74;36.44;101816.72;5094277;28;20036;-78
2022/09/02 02:56:24;;;;;;;2.05;0.80;;;;;;;21.79;36.49;101821.38;5093724;28;20043;-76
2022/09/02 02:58:49;;;;;;;2.33;1.10;;;;;;;21.74;36.40;101818.63;5093746;28;20162;-76
2022/09/02 03:01:15;;;;;;;1.67;0.80;;;;;;;21.82;36.46;101816.19;5093719;28;20035;-77
2022/09/02 03:03:42;;;;;;;6.82;1.10;;;;;;;21.88;36.16;101813.47;5074714;28;20040;-77
2022/09/02 03:06:07;;;;;;;5.45;1.10;;;;;;;21.87;36.37;101822.75;5094089;28;20096;-76
2022/09/02 03:08:34;;;;;;;1.70;1.15;;;;;;;21.79;36.53;101815.91;5088567;28;20044;-78
2022/09/02 03:10:59;;;;;;;3.15;0.80;;;;;;;21.76;36.19;101811.78;5093229;28;20113;-78
2022/09/02 03:13:25;;;;;;;3.55;0.80;;;;;;;21.83;36.25;101809.66;5093152;28;20425;-79
2022/09/02 03:15:51;;;;;;;2.35;0.70;;;;;;;21.76;36.55;101811.78;5074316;28;20111;-79
2022/09/02 03:18:16;;;;;;;2.15;0.80;;;;;;;21.79;35.95;101807.69;5095273;28;20112;-75
2022/09/02 03:20:42;;;;;;;0.75;0.60;;;;;;;21.83;36.42;101806.91;5097983;28;21724;-77
2022/09/02 03:23:08;;;;;;;1.60;0.88;;;;;;;21.92;36.04;101806.31;5093388;28;20438;-78
2022/09/02 03:25:34;;;;;;;1.05;0.75;;;;;;;21.69;36.39;101804.97;5093110;28;20119;-77
2022/09/02 03:28:01;;;;;;;1.55;0.80;;;;;;;21.78;36.45;101811.50;5093246;28;20480;-78
2022/09/02 03:30:28;;;;;;;2.35;0.98;;;;;;;21.71;36.35;101802.78;5089390;28;20080;-78
2022/09/02 03:32:56;;;;;;;4.95;0.70;;;;;;;21.84;36.21;101807.72;5093706;28;20031;-76
2022/09/02 03:35:22;;;;;;;5.95;0.65;;;;;;;21.80;36.14;101806.59;5092577;28;20051;-78
2022/09/02 03:37:49;;;;;;;2.97;0.90;;;;;;;21.86;35.99;101804.72;5092787;28;20032;-77
2022/09/02 03:40:19;;;;;;;1.90;0.90;;;;;;;21.93;35.89;101797.03;5092672;28;20092;-78
2022/09/02 03:42:44;;;;;;;3.60;0.68;;;;;;;21.91;35.83;101802.78;5093104;28;20040;-77
2022/09/02 03:45:13;;;;;;;0.80;0.68;;;;;;;21.96;36.13;101793.72;5092968;28;20107;-77
2022/09/02 03:47:42;;;;;;;0.70;0.70;;;;;;;21.89;36.27;101799.50;5092564;28;20152;-78
2022/09/02 03:50:08;;;;;;;1.43;0.60;;;;;;;21.74;36.25;101794.84;5092581;28;20039;-78
2022/09/02 03:52:33;;;;;;;1.50;0.80;;;;;;;21.92;36.13;101798.09;5092407;28;20186;-77
2022/09/02 03:54:59;;;;;;;0.50;0.50;;;;;;;21.81;36.08;101791.84;5090669;28;20036;-77
2022/09/02 03:57:26;;;;;;;0.50;0.50;;;;;;;21.90;36.19;101781.97;5092980;28;20063;-77
2022/09/02 03:59:52;;;;;;;0.90;0.60;;;;;;;22.09;35.60;101784.94;5093614;28;20415;-77
2022/09/02 04:02:17;;;;;;;3.45;0.60;;;;;;;22.13;35.72;101786.81;5092192;28;20032;-77
2022/09/02 04:04:43;;;;;;;1.58;0.90;;;;;;;22.14;35.79;101777.53;5087879;28;20032;-78
2022/09/02 04:07:09;;;;;;;4.88;1.00;;;;;;;21.97;36.02;101779.78;5091651;28;20127;-78
2022/09/02 04:09:34;;;;;;;3.45;0.82;;;;;;;22.07;36.06;101777.00;5073534;28;20055;-77
2022/09/02 04:12:00;;;;;;;2.75;1.08;;;;;;;21.89;36.26;101780.34;5093722;28;20032;-78
2022/09/02 04:14:26;;;;;;;0.50;0.50;;;;;;;22.09;35.47;101780.28;5092192;28;20032;-78
2022/09/02 04:16:51;;;;;;;5.03;1.23;;;;;;;22.03;35.90;101773.19;5092790;28;20027;-77
2022/09/02 04:19:17;;;;;;;1.00;0.90;;;;;;;22.14;35.81;101766.56;5073287;28;20043;-77
2022/09/02 04:21:42;;;;;;;1.52;0.88;;;;;;;22.04;36.05;101771.25;5091986;28;20050;-77
2022/09/02 04:24:09;;;;;;;2.65;0.70;;;;;;;22.04;35.95;101771.25;5092802;28;20027;-77
2022/09/02 04:26:36;;;;;;;5.05;0.90;;;;;;;22.12;35.83;101774.25;5091882;28;20143;-77
2022/09/02 04:29:03;;;;;;;1.55;0.60;;;;;;;21.84;36.16;101770.22;5091565;28;20089;-77
2022/09/02 04:31:30;;;;;;;1.38;0.85;;;;;;;22.06;36.10;101769.88;5091144;28;20518;-78
2022/09/02 04:33:56;;;;;;;2.45;1.10;;;;;;;21.97;35.85;101774.31;5073246;28;20043;-77
2022/09/02 04:36:22;;;;;;;4.35;0.70;;;;;;;22.15;35.87;101772.88;5091798;28;20081;-77
2022/09/02 04:38:48;;;;;;;7.05;0.80;;;;;;;22.02;35.79;101773.44;5083973;28;20032;-77
2022/09/02 04:41:18;;;;;;;3.08;0.88;;;;;;;22.09;35.91;101769.34;5091477;28;20024;-79
2022/09/02 04:43:44;;;;;;;2.05;0.93;;;;;;;21.99;36.05;101769.38;5090931;28;20051;-77
2022/09/02 04:46:12;;;;;;;3.97;1.13;;;;;;;22.24;35.45;101771.19;5090984;28;20055;-76
2022/09/02 04:48:38;;;;;;;1.33;0.73;;;;;;;22.16;35.80;101766.28;5085296;28;20074;-77
2022/09/02 04:51:06;;;;;;;1.50;0.85;;;;;;;22.30;35.29;101770.91;5088911;28;20024;-77
2022/09/02 04:53:32;;;;;;;5.57;0.88;;;;;;;22.26;35.34;101767.06;5081582;28;20120;-76
2022/09/02 04:55:58;;;;;;;5.47;1.00;;;;;;;22.27;35.85;101773.38;5082098;28;20048;-77
2022/09/02 04:58:23;;;;;;;2.42;0.90;;;;;;;22.31;35.98;101763.50;5086287;28;20831;-75
2022/09/02 05:00:49;;;;;;;2.50;0.70;;;;;;;22.31;35.39;101772.53;5087314;28;20044;-78
2022/09/02 05:03:14;;;;;;;3.55;1.05;;;;;;;22.40;35.49;101762.63;5085038;28;20032;-77
2022/09/02 05:05:40;;;;;;;1.98;0.77;;;;;;;22.39;35.44;101765.63;5092223;28;20048;-77
2022/09/02 05:08:06;;;;;;;2.58;0.90;;;;;;;22.47;35.00;101768.63;5096703;28;20036;-78
2022/09/02 05:10:32;;;;;;;1.48;1.13;;;;;;;22.42;35.31;101759.59;5097221;28;20036;-78
2022/09/02 05:12:58;;;;;;;2.38;0.82;;;;;;;22.37;35.74;101765.09;5096330;28;20090;-79
2022/09/02 05:15:25;;;;;;;2.53;0.90;;;;;;;22.51;35.10;101766.13;5093811;28;20068;-80
2022/09/02 05:17:51;;;;;;;1.58;0.80;;;;;;;22.46;35.32;101768.91;5096303;28;20078;-80
2022/09/02 05:20:17;;;;;;;3.80;1.45;;;;;;;22.53;35.07;101763.94;5095272;28;20028;-77
2022/09/02 05:22:42;;;;;;;1.75;0.93;;;;;;;22.38;35.74;101766.75;5095419;28;20039;-78
2022/09/02 05:25:09;;;;;;;1.20;0.40;;;;;;;22.56;35.21;101763.38;5095577;28;20531;-78
2022/09/02 05:27:35;;;;;;;2.95;1.13;;;;;;;22.53;35.59;101758.44;5094609;28;20118;-78
2022/09/02 05:30:02;;;;;;;1.75;1.05;;;;;;;22.38;36.04;101766.75;5092642;28;20043;-77
2022/09/02 05:32:28;;;;;;;5.65;0.90;;;;;;;22.28;35.92;101764.06;5091932;28;20105;-78
2022/09/02 05:34:54;;;;;;;1.13;0.90;;;;;;;22.31;35.50;101761.56;5090244;28;20480;-77
2022/09/02 05:37:20;;;;;;;3.72;1.15;;;;;;;22.54;35.55;101760.91;5090355;28;20036;-77
2022/09/02 05:39:46;;;;;;;5.53;0.93;;;;;;;22.60;35.43;101765.28;5093075;28;20040;-79
2022/09/02 05:42:11;;;;;;;1.13;0.90;;;;;;;22.65;35.20;101765.25;5087096;28;20390;-74
2022/09/02 05:44:37;;;;;;;3.15;1.30;;;;;;;22.82;35.05;101766.81;5090479;28;20491;-78
2022/09/02 05:47:03;;;;;;;6.15;1.08;;;;;;;22.86;35.14;101759.66;5093737;28;20032;-79
2022/09/02 05:49:29;;;;;;;10.13;1.90;;;;;;;22.50;35.14;101759.84;5092210;28;20034;-78
2022/09/02 05:51:57;;;;;;;1.42;0.70;;;;;;;22.81;34.84;101762.44;5094517;28;20036;-78
2022/09/02 05:54:35;;;;;;;3.20;0.77;;;;;;;22.90;35.04;101761.53;5088949;28;20360;-77
2022/09/02 05:57:04;;;;;;;3.15;1.00;;;;;;;22.90;34.67;101760.72;5069980;28;20488;-78
2022/09/02 05:59:30;;;;;;;3.45;1.23;;;;;;;22.81;34.94;101763.25;5092536;28;20035;-76
2022/09/02 06:01:57;;;;;;;2.65;1.10;;;;;;;23.00;34.72;101755.16;5089209;28;20028;-75
2022/09/02 06:04:23;;;;;;;7.72;1.35;;;;;;;22.90;35.31;101758.78;5094331;28;20040;-75
2022/09/02 06:06:50;;;;;;;1.70;0.95;;;;;;;23.03;35.10;101762.81;5094934;28;20040;-76
2022/09/02 06:09:18;;;;;;;3.30;1.05;;;;;;;23.15;34.65;101758.63;5092055;28;20097;-78
2022/09/02 06:11:44;;;;;;;4.20;1.17;;;;;;;22.94;35.16;101759.84;5095117;28;20031;-77
2022/09/02 06:14:12;;;;;;;2.70;1.20;;;;;;;23.14;34.97;101759.72;5093426;28;20392;-78
2022/09/02 06:16:39;;;;;;;2.33;1.38;;;;;;;23.06;34.76;101763.06;5084562;28;20151;-77
2022/09/02 06:19:04;;;;;;;3.95;0.90;;;;;;;23.29;34.27;101762.31;5089948;28;20043;-81
2022/09/02 06:21:31;;;;;;;3.00;0.77;;;;;;;23.40;34.66;101758.44;5092372;28;20414;-81
2022/09/02 06:23:56;;;;;;;2.50;1.00;;;;;;;23.21;34.70;101760.19;5089634;28;20471;-80
2022/09/02 06:26:22;;;;;;;1.38;0.63;;;;;;;23.12;35.23;101759.19;5093812;28;20043;-76
2022/09/02 06:28:47;;;;;;;2.72;1.45;;;;;;;23.17;35.19;101753.66;5094098;28;20040;-79
2022/09/02 06:31:17;;;;;;;2.40;1.17;;;;;;;23.48;34.03;101757.00;5066369;28;20044;-75
2022/09/02 06:33:44;;;;;;;3.22;1.20;;;;;;;23.32;34.38;101752.75;5064679;28;21056;-79
2022/09/02 06:36:14;;;;;;;1.55;0.68;;;;;;;23.44;34.37;101754.00;5079021;28;20036;-78
2022/09/02 06:38:42;;;;;;;6.70;0.90;;;;;;;23.38;34.78;101755.16;5065612;28;20668;-75
2022/09/02 06:41:11;;;;;;;3.15;0.85;;;;;;;23.57;34.05;101754.44;5089160;28;20507;-77
2022/09/02 06:43:37;;;;;;;1.80;1.05;;;;;;;23.76;34.14;101752.59;5087382;28;20400;-77
2022/09/02 06:46:02;;;;;;;5.25;0.93;;;;;;;23.60;34.34;101751.94;5085208;28;20044;-77
2022/09/02 06:48:28;;;;;;;1.48;1.10;;;;;;;23.38;34.95;101752.41;5079758;28;20028;-73
2022/09/02 06:50:54;;;;;;;2.05;0.93;;;;;;;23.73;34.16;101751.25;5080910;28;20035;-73
2022/09/02 06:53:19;;;;;;;5.35;1.13;;;;;;;23.61;34.46;101748.06;5081845;28;20616;-73
2022/09/02 06:55:45;;;;;;;2.47;1.05;;;;;;;23.45;34.33;101752.06;5084254;28;20123;-75
2022/09/02 06:58:12;;;;;;;4.80;0.90;;;;;;;23.21;34.67;101751.16;5082783;28;20044;-72
2022/09/02 07:00:39;;;;;;;6.90;1.15;;;;;;;23.55;34.41;101749.22;5086580;28;20115;-75
2022/09/02 07:06:09;;;;;;;4.50;1.08;;;;;;;23.66;34.03;101749.94;5083058;28;20070;-72
2022/09/02 07:08:41;;;;;;;3.60;1.00;;;;;;;23.67;34.41;101752.41;5069052;28;20040;-73
2022/09/02 07:11:15;;;;;;;2.65;0.90;;;;;;;23.87;34.09;101748.63;5070003;28;20080;-74
2022/09/02 07:13:40;;;;;;;8.65;1.15;;;;;;;23.61;34.79;101752.72;5089850;28;20611;-74
2022/09/02 07:16:06;;;;;;;2.70;0.85;;;;;;;23.68;34.57;101751.31;5086444;28;20040;-73
2022/09/02 07:18:32;;;;;;;2.95;1.10;;;;;;;23.61;34.84;101744.50;5089927;28;20051;-73
2022/09/02 07:20:58;;;;;;;2.83;1.10;;;;;;;23.99;34.50;101744.38;5088226;28;20035;-75
2022/09/02 07:23:24;;;;;;;4.38;0.90;;;;;;;24.20;34.08;101744.94;5064907;28;20737;-75
2022/09/02 07:25:49;;;;;;;2.47;0.77;;;;;;;24.58;33.39;101737.56;5088450;28;20089;-73
2022/09/02 07:28:14;;;;;;;1.95;0.98;;;;;;;24.15;34.19;101734.03;5089074;28;20032;-72
2022/09/02 07:30:42;;;;;;;2.95;1.17;;;;;;;24.32;33.66;101737.94;5090415;28;20032;-72
2022/09/02 07:33:08;;;;;;;3.55;0.90;;;;;;;24.64;33.06;101739.16;5070979;28;20122;-73
2022/09/02 07:35:35;;;;;;;2.97;1.25;;;;;;;24.50;33.50;101738.25;5067053;28;20043;-73
2022/09/02 07:38:03;;;;;;;3.97;0.88;;;;;;;24.73;33.05;101743.69;5091968;28;20028;-73
2022/09/02 07:40:28;;;;;;;7.25;1.00;;;;;;;24.37;34.14;101740.59;5091833;28;20448;-73
2022/09/02 07:42:54;;;;;;;4.93;1.10;;;;;;;24.16;34.30;101744.72;5087883;28;20040;-73
2022/09/02 07:45:20;;;;;;;6.70;1.50;;;;;;;23.95;33.94;101737.81;5087184;28;20073;-74
2022/09/02 07:47:45;;;;;;;8.32;1.25;;;;;;;24.36;34.18;101736.22;5092226;28;20111;-74
2022/09/02 07:50:12;;;;;;;5.45;1.23;;;;;;;24.35;33.96;101731.03;5089241;28;20035;-72
2022/09/02 07:52:38;;;;;;;8.95;1.38;;;;;;;24.52;33.54;101738.75;5085386;28;20089;-72
2022/09/02 07:55:04;;;;;;;5.38;1.20;;;;;;;24.65;33.45;101741.59;5086367;28;20043;-71
2022/09/02 07:57:30;;;;;;;2.88;0.90;;;;;;;25.08;32.54;101734.88;5084924;28;20368;-72
2022/09/02 07:59:56;;;;;;;6.18;1.20;;;;;;;25.12;33.15;101735.94;5086253;28;20070;-73
2022/09/02 08:02:21;;;;;;;3.92;1.02;;;;;;;25.82;31.98;101727.53;5086377;28;20119;-73
2022/09/02 08:04:47;;;;;;;3.47;1.38;;;;;;;25.29;32.75;101729.88;5088063;28;20033;-73
2022/09/02 08:07:12;;;;;;;7.80;1.40;;;;;;;25.42;32.54;101733.78;5084900;28;20039;-74
2022/09/02 08:09:38;;;;;;;4.20;1.10;;;;;;;25.55;32.09;101730.28;5085337;28;20496;-75
2022/09/02 08:12:04;;;;;;;5.43;1.27;;;;;;;25.26;32.91;101727.72;5091078;28;20027;-74
2022/09/02 08:14:30;;;;;;;2.55;1.30;;;;;;;25.58;32.37;101733.22;5084427;28;20526;-73
2022/09/02 08:16:56;;;;;;;4.55;1.27;;;;;;;26.21;31.53;101730.63;5085637;28;20036;-73
2022/09/02 08:19:23;;;;;;;2.50;1.48;;;;;;;26.52;30.92;101719.72;5086474;28;20043;-73
2022/09/02 08:21:49;;;;;;;8.57;1.25;;;;;;;26.38;31.35;101719.75;5078156;28;20366;-76
2022/09/02 08:24:15;;;;;;;4.00;1.40;;;;;;;26.20;31.18;101726.22;5052151;28;20028;-74
2022/09/02 08:26:41;;;;;;;2.83;1.15;;;;;;;26.04;31.31;101719.38;5074015;28;20024;-73
2022/09/02 08:29:08;;;;;;;2.72;1.08;;;;;;;26.32;30.31;101722.97;5075835;28;20071;-73
2022/09/02 08:31:36;;;;;;;2.13;0.88;;;;;;;26.28;30.58;101719.19;5084496;28;20109;-74
2022/09/02 08:34:01;;;;;;;4.70;1.20;;;;;;;26.45;30.29;101711.06;5080194;28;20032;-72
2022/09/02 08:36:27;;;;;;;4.80;1.13;;;;;;;26.80;29.80;101707.53;5077907;28;20042;-73
2022/09/02 08:38:54;;;;;;;5.32;1.17;;;;;;;26.51;30.32;101707.91;5083451;28;20016;-74
2022/09/02 08:41:33;;;;;;;6.38;1.42;;;;;;;27.05;29.84;101706.06;5074204;28;20039;-75
2022/09/02 08:44:03;;;;;;;11.75;1.08;;;;;;;27.31;29.18;101712.56;5081975;28;20114;-74
2022/09/02 08:46:30;;;;;;;;;;;;;;;27.20;29.04;101705.69;5082062;28;20059;-77
2022/09/02 08:49:03;;;;;;;4.32;1.45;;;;;;;26.98;29.51;101706.53;5084278;28;20376;-71
2022/09/02 08:51:30;;;;;;;5.30;0.98;;;;;;;27.07;29.59;101709.31;5073195;28;20032;-72
2022/09/02 08:54:03;;;;;;;7.43;0.98;;;;;;;27.69;28.70;101703.53;5069785;28;20072;-73
2022/09/02 08:56:30;;;;;;;5.70;1.20;;;;;;;27.88;28.25;101705.22;5076203;28;20500;-71
2022/09/02 08:58:55;;;;;;;19.83;1.20;;;;;;;27.30;28.82;101703.47;5071131;28;20496;-75
2022/09/02 09:01:29;;;;;;;3.13;1.20;;;;;;;27.71;28.67;101704.03;5054478;28;20051;-72
2022/09/02 09:04:42;;;;;;;2.22;1.02;;;;;;;28.36;27.49;101694.97;5088123;28;20036;-73
2022/09/02 09:07:14;;;;;;;3.10;0.60;;;;;;;28.43;27.49;101695.28;4995168;28;20054;-75
2022/09/02 09:10:14;;;;;;;3.17;1.20;;;;;;;28.22;27.28;101703.41;4997219;28;20038;-74
2022/09/02 09:12:54;;;;;;;2.67;0.90;;;;;;;27.67;28.47;101692.00;4900973;29;20044;-73
2022/09/02 09:15:37;;;;;;;6.35;1.13;;;;;;;27.73;28.73;101696.22;4896141;29;20052;-74
2022/09/02 09:18:08;;;;;;;5.22;1.20;;;;;;;28.18;28.19;101699.66;4904688;29;20044;-73
2022/09/02 09:20:38;;;;;;;4.63;0.82;;;;;;;28.57;27.21;101682.97;4898082;29;20593;-73
2022/09/02 09:23:27;;;;;;;4.00;1.03;;;;;;;28.55;27.28;101673.38;4913077;29;20501;-73
2022/09/02 09:25:58;;;;;;;4.50;1.17;;;;;;;28.76;27.05;101673.50;4913118;29;20040;-72
2022/09/02 09:28:24;;;;;;;4.18;1.30;;;;;;;28.58;27.22;101669.94;4913190;29;20085;-72
2022/09/02 09:30:49;;;;;;;3.17;1.08;;;;;;;28.90;26.64;101672.22;4897544;29;20040;-73
2022/09/02 09:33:21;;;;;;;3.72;1.15;;;;;;;28.80;26.86;101663.41;4913256;29;20598;-73
2022/09/02 09:35:55;;;;;;;4.22;0.80;;;;;;;29.31;26.06;101669.69;4913638;29;20392;-74
2022/09/02 09:38:34;;;;;;;5.60;1.17;;;;;;;29.35;26.15;101675.38;4913156;29;20055;-73
2022/09/02 09:41:29;;;;;;;3.80;1.17;;;;;;;29.46;25.65;101662.81;4913540;29;20177;-73
2022/09/02 09:43:55;;;;;;;7.63;1.00;;;;;;;28.96;26.31;101659.81;4900600;29;20040;-73
2022/09/02 09:46:25;;;;;;;2.10;0.88;;;;;;;28.75;26.76;101655.31;4912993;29;20048;-74
2022/09/02 09:48:51;;;;;;;6.32;0.95;;;;;;;29.36;26.13;101658.44;4930976;28;20065;-74
2022/09/02 09:51:16;;;;;;;4.93;1.00;;;;;;;29.64;25.39;101658.00;4991547;28;20034;-73
2022/09/02 09:53:43;;;;;;;5.63;1.02;;;;;;;29.77;24.85;101657.81;5008979;28;20649;-74
2022/09/02 09:56:14;;;;;;;2.35;1.00;;;;;;;29.69;24.78;101641.19;5013091;28;20042;-73
2022/09/02 09:58:40;;;;;;;3.30;1.10;;;;;;;29.92;24.63;101643.34;5013413;28;20041;-74
2022/09/02 10:01:25;;;;;;;3.17;1.27;;;;;;;29.74;24.35;101641.03;5012937;28;20493;-73
2022/09/02 10:03:59;;;;;;;3.05;1.33;;;;;;;29.76;24.55;101636.75;5013732;28;20116;-73
2022/09/02 10:06:31;;;;;;;14.30;1.73;;;;;;;30.15;24.17;101635.56;5012766;28;20072;-74
2022/09/02 10:09:17;;;;;;;1.65;0.80;;;;;;;30.43;23.65;101633.09;5013401;28;20034;-74
2022/09/02 10:12:11;;;;;;;6.35;0.90;;;;;;;30.52;22.89;101625.47;5012731;28;20085;-74
2022/09/02 10:14:41;;;;;;;4.07;0.98;;;;;;;30.40;22.73;101633.75;5012546;28;20509;-74
2022/09/02 10:17:21;;;;;;;4.07;0.77;;;;;;;30.64;22.65;101633.84;5012413;28;20645;-70
2022/09/02 10:19:53;;;;;;;;;;;;;;;30.42;23.14;101631.44;5024324;28;20401;-73
2022/09/02 10:22:36;;;;;;;4.38;1.15;;;;;;;31.29;21.84;101633.84;5053698;28;19923;-73
2022/09/02 10:25:23;;;;;;;4.57;2.38;;;;;;;30.28;22.85;101623.41;5055092;28;20055;-74
2022/09/02 10:28:02;;;;;;;3.20;0.98;;;;;;;31.07;22.30;101635.06;5053491;28;20029;-73
2022/09/02 10:30:31;;;;;;;13.23;2.60;;;;;;;30.80;22.27;101620.97;5054995;28;20082;-72
2022/09/02 10:33:19;;;;;;;5.30;1.10;;;;;;;31.23;22.28;101613.00;5055129;28;20082;-73
2022/09/02 10:36:06;;;;;;;3.22;1.05;;;;;;;31.04;21.70;101612.72;5054742;28;20061;-72
2022/09/02 10:38:37;;;;;;;3.30;0.98;;;;;;;31.05;21.97;101617.13;5054668;28;20041;-73
2022/09/02 10:41:21;;;;;;;2.47;1.10;;;;;;;30.85;22.89;101607.72;5052854;28;20051;-73
2022/09/02 10:44:19;;;;;;;5.53;1.08;;;;;;;31.34;22.28;101613.34;5054590;28;20421;-75
2022/09/02 10:46:59;;;;;;;3.25;0.98;;;;;;;31.31;21.89;101623.19;5043302;28;20118;-73
2022/09/02 10:49:50;;;;;;;5.80;0.97;;;;;;;31.87;21.06;101604.78;5045409;28;20073;-74
2022/09/02 10:52:34;;;;;;;2.60;0.85;;;;;;;32.02;21.08;101606.84;5012063;28;20831;-73
2022/09/02 10:55:36;;;;;;;4.15;1.13;;;;;;;31.98;21.08;101605.94;5011735;28;20038;-75
2022/09/02 10:58:09;;;;;;;3.40;0.80;;;;;;;32.11;20.40;101601.16;5011701;28;20061;-73
2022/09/02 11:00:39;;;;;;;7.88;1.15;;;;;;;31.79;20.83;101600.16;5012036;28;20034;-73
2022/09/02 11:03:19;;;;;;;3.70;0.82;;;;;;;31.85;21.06;101607.91;5011026;28;20050;-74
2022/09/02 11:06:11;;;;;;;4.10;1.10;;;;;;;31.86;20.95;101595.63;5012133;28;20814;-71
2022/09/02 11:08:45;;;;;;;5.82;0.70;;;;;;;32.30;20.77;101595.75;5011609;28;20049;-72
2022/09/02 11:11:20;;;;;;;1.77;0.90;;;;;;;32.14;20.51;101594.91;5011472;28;20390;-72
2022/09/02 11:13:51;;;;;;;4.25;1.20;;;;;;;32.70;20.51;101589.03;5009856;28;20155;-73
2022/09/02 11:16:27;;;;;;;1.33;0.80;;;;;;;32.54;19.80;101595.69;5011313;28;20137;-73
2022/09/02 11:19:18;;;;;;;2.38;0.88;;;;;;;32.92;19.60;101584.00;5011087;28;20042;-74
2022/09/02 11:21:54;;;;;;;7.88;1.02;;;;;;;32.92;19.93;101589.59;5011588;28;20050;-75
2022/09/02 11:24:20;;;;;;;2.97;1.00;;;;;;;32.83;19.82;101584.19;5010936;28;20477;-74
2022/09/02 11:27:10;;;;;;;3.53;0.90;;;;;;;33.12;20.09;101580.19;4995035;28;20044;-73
2022/09/02 11:29:58;;;;;;;6.80;1.52;;;;;;;32.60;20.23;101575.63;5026056;28;20505;-74
2022/09/02 11:32:53;;;;;;;5.18;0.90;;;;;;;33.12;19.85;101569.84;5033008;28;20049;-72
2022/09/02 11:35:38;;;;;;;6.85;1.05;;;;;;;33.46;19.41;101571.06;5050398;28;20400;-71
2022/09/02 11:38:06;;;;;;;3.22;0.98;;;;;;;33.56;19.22;101578.91;5052865;28;20029;-74